createdAt,value
2019-03-10T00:04:35.698Z,5.40
2019-03-10T00:10:40.022Z,5.08
2019-03-10T00:16:44.460Z,5.50
2019-03-10T00:22:48.739Z,5.80
2019-03-10T00:28:52.977Z,5.90
2019-03-10T00:34:58.402Z,6.65
2019-03-10T00:41:34.413Z,5.85
2019-03-10T00:48:03.718Z,6.35
2019-03-10T00:54:07.936Z,3.72
2019-03-10T01:00:17.134Z,3.17
2019-03-10T01:06:21.401Z,3.67
2019-03-10T01:12:25.784Z,4.12
2019-03-10T01:18:30.833Z,4.33
2019-03-10T01:24:35.365Z,4.50
2019-03-10T01:30:53.311Z,3.83
2019-03-10T01:36:57.540Z,3.52
2019-03-10T01:43:01.829Z,3.05
2019-03-10T01:49:06.121Z,2.98
2019-03-10T01:55:10.788Z,4.05
2019-03-10T02:01:14.957Z,4.00
2019-03-10T02:07:19.675Z,8.18
2019-03-10T02:13:24.115Z,4.95
2019-03-10T02:19:28.420Z,3.58
2019-03-10T02:25:32.656Z,3.90
2019-03-10T02:31:36.876Z,4.10
2019-03-10T02:37:41.210Z,3.90
2019-03-10T02:43:45.420Z,4.75
2019-03-10T02:49:49.719Z,6.58
2019-03-10T02:55:53.965Z,7.17
2019-03-10T03:01:58.225Z,6.33
2019-03-10T03:08:02.482Z,5.95
2019-03-10T03:14:06.816Z,4.08
2019-03-10T03:20:11.034Z,3.85
2019-03-10T03:26:15.461Z,3.95
2019-03-10T03:32:19.800Z,3.05
2019-03-10T03:38:27.241Z,2.85
2019-03-10T03:44:31.446Z,2.62
2019-03-10T03:50:35.852Z,2.83
2019-03-10T03:56:40.077Z,2.30
2019-03-10T04:02:44.486Z,2.70
2019-03-10T04:08:48.696Z,2.65
2019-03-10T04:14:52.977Z,2.90
2019-03-10T04:20:57.236Z,3.20
2019-03-10T04:27:01.480Z,3.37
2019-03-10T04:33:05.830Z,4.40
2019-03-10T04:39:10.030Z,4.83
2019-03-10T04:45:14.357Z,4.75
2019-03-10T04:51:18.633Z,5.75
2019-03-10T04:57:23.100Z,4.80
2019-03-10T05:03:27.411Z,5.08
2019-03-10T05:09:31.595Z,4.95
2019-03-10T05:15:35.818Z,5.40
2019-03-10T05:21:40.043Z,6.08
2019-03-10T05:27:44.261Z,6.67
2019-03-10T05:33:48.521Z,17.60
2019-03-10T05:39:52.821Z,16.15
2019-03-10T05:45:57.075Z,13.05
2019-03-10T05:52:01.335Z,8.00
2019-03-10T05:58:05.571Z,10.03
2019-03-10T06:04:09.898Z,7.95
2019-03-10T06:10:14.098Z,5.10
2019-03-10T06:16:18.727Z,5.45
2019-03-10T06:22:23.013Z,4.35
2019-03-10T06:28:27.838Z,4.58
2019-03-10T06:34:32.033Z,4.83
2019-03-10T06:40:36.258Z,4.35
2019-03-10T06:46:40.548Z,4.58
2019-03-10T06:52:44.774Z,3.40
2019-03-10T06:58:49.052Z,3.95
2019-03-10T07:04:53.349Z,4.10
2019-03-10T07:10:57.701Z,3.42
2019-03-10T07:17:01.980Z,3.80
2019-03-10T07:23:08.490Z,3.35
2019-03-10T07:29:23.233Z,4.08
2019-03-10T07:35:41.990Z,3.77
2019-03-10T07:41:53.810Z,3.27
2019-03-10T07:48:32.566Z,3.52
2019-03-10T07:54:54.372Z,4.20
2019-03-10T08:01:32.603Z,4.00
2019-03-10T08:08:02.090Z,4.80
2019-03-10T08:14:37.480Z,5.72
2019-03-10T08:20:51.250Z,7.67
2019-03-10T08:27:12.991Z,6.58
2019-03-10T08:33:34.817Z,7.80
2019-03-10T08:40:16.200Z,8.38
2019-03-10T08:46:42.193Z,7.05
2019-03-10T08:53:04.001Z,6.75
2019-03-10T08:59:33.159Z,8.60
2019-03-10T09:06:05.568Z,8.03
2019-03-10T09:12:31.955Z,5.55
2019-03-10T09:18:49.813Z,6.90
2019-03-10T09:25:19.521Z,9.00
2019-03-10T09:31:39.654Z,7.58
2019-03-10T09:38:10.150Z,7.37
2019-03-10T09:44:44.455Z,7.45
2019-03-10T09:51:21.904Z,9.25
2019-03-10T09:57:59.072Z,8.53
2019-03-10T10:04:35.860Z,6.65
2019-03-10T10:10:45.899Z,5.17
2019-03-10T10:17:13.182Z,8.40
2019-03-10T10:23:42.313Z,8.85
2019-03-10T10:30:01.744Z,5.50
2019-03-10T10:36:40.251Z,6.78
2019-03-10T10:42:53.899Z,5.10
2019-03-10T10:49:03.489Z,4.35
2019-03-10T10:55:18.962Z,5.22
2019-03-10T11:01:41.207Z,3.72
2019-03-10T11:08:04.518Z,2.90
2019-03-10T11:14:27.772Z,2.45
2019-03-10T11:20:40.365Z,2.60
2019-03-10T11:27:06.715Z,1.27
2019-03-10T11:33:28.566Z,2.72
2019-03-10T11:40:03.715Z,2.10
2019-03-10T11:46:25.085Z,1.12
2019-03-10T11:52:46.006Z,2.20
2019-03-10T11:58:55.714Z,1.20
2019-03-10T12:05:17.330Z,1.57
2019-03-10T12:11:21.497Z,1.30
2019-03-10T12:17:25.872Z,1.35
2019-03-10T12:23:30.326Z,1.32
2019-03-10T12:29:34.539Z,0.70
2019-03-10T12:35:38.720Z,1.62
2019-03-10T12:41:43.005Z,1.30
2019-03-10T12:47:47.192Z,1.35
2019-03-10T12:53:51.558Z,1.37
2019-03-10T12:59:55.763Z,0.95
2019-03-10T13:06:00.054Z,1.22
2019-03-10T13:12:04.359Z,1.42
2019-03-10T13:18:08.709Z,1.57
2019-03-10T13:24:12.969Z,1.50
2019-03-10T13:30:17.252Z,1.00
2019-03-10T13:36:21.704Z,1.60
2019-03-10T13:42:25.895Z,1.50
2019-03-10T13:48:30.085Z,1.45
2019-03-10T13:54:34.316Z,1.50
2019-03-10T14:00:38.635Z,0.98
2019-03-10T14:06:42.944Z,0.90
2019-03-10T14:12:47.139Z,1.45
2019-03-10T14:18:51.357Z,0.90
2019-03-10T14:24:55.569Z,0.82
2019-03-10T14:30:59.813Z,0.60
2019-03-10T14:37:04.002Z,0.98
2019-03-10T14:43:08.323Z,0.45
2019-03-10T14:49:22.619Z,0.50
2019-03-10T14:55:18.537Z,0.80
2019-03-10T15:01:22.786Z,0.85
2019-03-10T15:07:26.964Z,1.00
2019-03-10T15:13:31.400Z,0.93
2019-03-10T15:19:35.650Z,0.70
2019-03-10T15:25:39.925Z,0.80
2019-03-10T15:31:44.134Z,1.00
2019-03-10T15:37:48.432Z,0.72
2019-03-10T15:43:52.688Z,0.85
2019-03-10T15:49:57.003Z,1.22
2019-03-10T15:56:01.290Z,0.60
2019-03-10T16:02:05.683Z,0.70
2019-03-10T16:08:09.932Z,0.90
2019-03-10T16:14:14.224Z,0.80
2019-03-10T16:20:18.421Z,1.30
2019-03-10T16:26:22.723Z,0.85
2019-03-10T16:32:26.963Z,1.40
2019-03-10T16:38:31.196Z,0.90
2019-03-10T16:44:35.463Z,1.17
2019-03-10T16:50:39.846Z,1.52
2019-03-10T16:56:44.136Z,2.33
2019-03-10T17:02:48.321Z,1.22
2019-03-10T17:08:52.707Z,0.78
2019-03-10T17:14:57.170Z,1.20
2019-03-10T17:21:02.252Z,1.42
2019-03-10T17:27:06.509Z,1.98
2019-03-10T17:33:11.017Z,1.70
2019-03-10T17:39:15.503Z,1.12
2019-03-10T17:45:20.329Z,1.65
2019-03-10T17:51:29.731Z,1.20
2019-03-10T17:57:34.220Z,1.22
2019-03-10T18:03:38.433Z,1.15
2019-03-10T18:09:42.781Z,1.75
2019-03-10T18:15:47.501Z,1.30
2019-03-10T18:21:51.819Z,2.25
2019-03-10T18:27:56.103Z,1.75
2019-03-10T18:34:00.461Z,2.72
2019-03-10T18:40:04.969Z,2.60
2019-03-10T18:46:09.345Z,2.45
2019-03-10T18:52:14.122Z,2.75
2019-03-10T18:58:18.785Z,3.22
2019-03-10T19:04:23.018Z,2.72
2019-03-10T19:10:27.564Z,3.72
2019-03-10T19:16:31.852Z,5.10
2019-03-10T19:22:36.288Z,5.10
2019-03-10T19:28:40.747Z,4.60
2019-03-10T19:34:44.979Z,5.20
2019-03-10T19:40:49.438Z,4.20
2019-03-10T19:46:55.187Z,3.72
2019-03-10T19:52:59.598Z,2.27
2019-03-10T19:59:03.830Z,2.72
2019-03-10T20:05:08.635Z,1.90
2019-03-10T20:11:13.485Z,2.95
2019-03-10T20:17:17.924Z,4.40
2019-03-10T20:23:22.283Z,6.08
2019-03-10T20:29:26.817Z,9.93
2019-03-10T20:35:31.732Z,5.03
2019-03-10T20:41:36.565Z,8.90
2019-03-10T20:47:41.145Z,3.20
2019-03-10T20:53:45.594Z,2.50
2019-03-10T21:00:00.133Z,2.62
2019-03-10T21:05:56.407Z,2.15
2019-03-10T21:12:01.089Z,2.72
2019-03-10T21:18:05.611Z,2.72
2019-03-10T21:24:09.952Z,6.42
2019-03-10T21:30:16.997Z,7.50
2019-03-10T21:36:21.331Z,5.03
2019-03-10T21:42:26.009Z,1.70
2019-03-10T21:48:33.255Z,7.25
2019-03-10T21:54:37.984Z,13.53
2019-03-10T22:00:42.309Z,3.15
2019-03-10T22:06:46.617Z,3.52
2019-03-10T22:12:51.291Z,2.25
2019-03-10T22:18:55.858Z,1.80
2019-03-10T22:25:01.667Z,1.40
2019-03-10T22:31:06.569Z,1.50
2019-03-10T22:37:10.860Z,2.02
2019-03-10T22:43:15.178Z,1.65
2019-03-10T22:49:19.425Z,2.40
2019-03-10T22:55:23.793Z,1.80
2019-03-10T23:01:27.990Z,2.47
2019-03-10T23:07:32.320Z,2.02
2019-03-10T23:13:36.605Z,2.60
2019-03-10T23:19:40.854Z,2.33
2019-03-10T23:25:45.244Z,2.60
2019-03-10T23:31:49.516Z,1.80
2019-03-10T23:37:53.721Z,3.50
2019-03-10T23:43:57.966Z,3.60
2019-03-10T23:50:02.339Z,7.05
2019-03-10T23:56:06.673Z,6.25
